createdAt,value
2019-05-12T00:01:53.456Z,33.05
2019-05-12T00:04:24.735Z,28.65
2019-05-12T00:06:58.974Z,30.80
2019-05-12T00:09:31.267Z,33.00
2019-05-12T00:12:08.130Z,30.60
2019-05-12T00:14:38.638Z,34.10
2019-05-12T00:17:10.873Z,32.05
2019-05-12T00:19:43.009Z,48.85
2019-05-12T00:22:19.216Z,28.70
2019-05-12T00:27:23.163Z,27.82
2019-05-12T00:29:57.849Z,29.23
2019-05-12T00:32:30.176Z,31.95
2019-05-12T00:35:01.138Z,29.45
2019-05-12T00:37:32.480Z,27.80
2019-05-12T00:40:04.621Z,27.62
2019-05-12T00:42:38.154Z,33.90
2019-05-12T00:45:10.247Z,31.60
2019-05-12T00:47:42.561Z,27.90
2019-05-12T00:50:18.451Z,29.02
2019-05-12T00:52:52.068Z,24.30
2019-05-12T00:55:31.092Z,29.65
2019-05-12T00:58:03.624Z,34.00
2019-05-12T01:00:40.566Z,33.10
2019-05-12T01:03:11.327Z,24.47
2019-05-12T01:05:43.635Z,25.52
2019-05-12T01:08:18.802Z,28.75
2019-05-12T01:10:53.035Z,55.73
2019-05-12T01:13:27.770Z,25.15
2019-05-12T01:15:58.829Z,31.55
2019-05-12T01:18:32.478Z,29.63
2019-05-12T01:21:07.823Z,29.60
2019-05-12T01:23:53.647Z,28.40
2019-05-12T01:26:17.716Z,29.05
2019-05-12T01:28:49.553Z,27.65
2019-05-12T01:31:24.748Z,36.30
2019-05-12T01:36:31.521Z,26.52
2019-05-12T01:39:04.140Z,32.42
2019-05-12T01:41:38.749Z,29.63
2019-05-12T01:44:10.301Z,26.12
2019-05-12T01:46:44.014Z,25.70
2019-05-12T01:49:18.481Z,30.45
2019-05-12T01:51:49.693Z,28.55
2019-05-12T01:54:23.704Z,28.55
2019-05-12T01:56:54.711Z,27.85
2019-05-12T01:59:28.678Z,29.65
2019-05-12T02:02:00.195Z,31.17
2019-05-12T02:04:33.737Z,30.25
2019-05-12T02:07:08.231Z,26.90
2019-05-12T02:09:39.630Z,21.93
2019-05-12T02:12:13.738Z,23.85
2019-05-12T02:14:48.531Z,24.80
2019-05-12T02:17:20.144Z,20.17
2019-05-12T02:19:52.001Z,24.60
2019-05-12T02:22:24.391Z,22.52
2019-05-12T02:24:55.571Z,22.25
2019-05-12T02:27:28.397Z,24.75
2019-05-12T02:30:01.181Z,28.32
2019-05-12T02:32:47.825Z,26.37
2019-05-12T02:35:08.067Z,25.20
2019-05-12T02:37:45.217Z,23.18
2019-05-12T02:40:17.375Z,23.92
2019-05-12T02:42:54.559Z,22.05
2019-05-12T02:45:25.737Z,22.90
2019-05-12T02:47:58.102Z,20.20
2019-05-12T02:50:35.234Z,19.57
2019-05-12T02:53:06.094Z,21.68
2019-05-12T02:55:38.677Z,22.40
2019-05-12T02:58:15.271Z,23.42
2019-05-12T03:00:47.508Z,21.17
2019-05-12T03:03:19.275Z,20.15
2019-05-12T03:05:54.688Z,21.85
2019-05-12T03:08:28.099Z,18.07
2019-05-12T03:11:00.575Z,21.65
2019-05-12T03:13:34.401Z,22.02
2019-05-12T03:16:05.230Z,19.85
2019-05-12T03:18:37.402Z,17.82
2019-05-12T03:21:08.475Z,23.40
2019-05-12T03:23:44.261Z,19.10
2019-05-12T03:26:19.719Z,17.82
2019-05-12T03:28:55.617Z,17.42
2019-05-12T03:31:31.215Z,17.80
2019-05-12T03:34:08.236Z,18.85
2019-05-12T03:36:51.082Z,23.50
2019-05-12T03:39:24.955Z,16.85
2019-05-12T03:41:55.887Z,18.85
2019-05-12T03:44:28.182Z,19.73
2019-05-12T03:47:00.488Z,17.05
2019-05-12T03:49:35.272Z,21.48
2019-05-12T03:52:07.367Z,17.62
2019-05-12T03:54:39.954Z,17.35
2019-05-12T03:57:14.769Z,21.45
2019-05-12T03:59:45.442Z,17.05
2019-05-12T04:02:25.165Z,17.87
2019-05-12T04:04:57.958Z,20.97
2019-05-12T04:07:29.217Z,19.60
2019-05-12T04:10:01.274Z,18.23
2019-05-12T04:12:34.581Z,19.42
2019-05-12T04:15:08.810Z,18.30
2019-05-12T04:17:39.787Z,22.80
2019-05-12T04:20:14.927Z,18.45
2019-05-12T04:22:48.376Z,17.62
2019-05-12T04:25:24.995Z,16.67
2019-05-12T04:27:55.637Z,20.70
2019-05-12T04:30:35.431Z,15.50
2019-05-12T04:33:06.870Z,21.42
2019-05-12T04:35:38.857Z,17.70
2019-05-12T04:38:14.668Z,20.23
2019-05-12T04:40:45.415Z,17.12
2019-05-12T04:43:20.224Z,18.37
2019-05-12T04:45:57.484Z,22.67
2019-05-12T04:48:35.340Z,18.50
2019-05-12T04:53:44.993Z,19.70
2019-05-12T04:56:20.536Z,17.62
2019-05-12T04:58:54.257Z,21.87
2019-05-12T05:01:25.384Z,19.57
2019-05-12T05:03:57.931Z,18.65
2019-05-12T05:06:34.168Z,19.15
2019-05-12T05:09:09.181Z,19.20
2019-05-12T05:11:44.360Z,18.80
2019-05-12T05:14:15.144Z,18.37
2019-05-12T05:16:46.327Z,18.98
2019-05-12T05:19:17.429Z,19.23
2019-05-12T05:21:48.515Z,18.40
2019-05-12T05:24:19.698Z,17.35
2019-05-12T05:26:53.775Z,20.08
2019-05-12T05:29:25.579Z,22.52
2019-05-12T05:31:56.703Z,24.67
2019-05-12T05:34:31.107Z,17.70
2019-05-12T05:37:05.045Z,19.00
2019-05-12T05:39:48.026Z,17.30
2019-05-12T05:42:08.361Z,21.68
2019-05-12T05:44:40.344Z,16.93
2019-05-12T05:47:13.849Z,17.25
2019-05-12T05:49:46.110Z,17.82
2019-05-12T05:52:18.495Z,18.92
2019-05-12T05:54:50.302Z,22.05
2019-05-12T05:57:27.771Z,25.27
2019-05-12T05:59:57.045Z,22.62
2019-05-12T06:02:31.960Z,24.60
2019-05-12T06:05:04.401Z,22.52
2019-05-12T06:07:39.073Z,21.60
2019-05-12T06:10:59.576Z,20.90
2019-05-12T06:13:27.341Z,20.70
2019-05-12T06:15:56.244Z,27.30
2019-05-12T06:21:33.884Z,18.70
2019-05-12T06:24:23.781Z,23.12
2019-05-12T06:27:00.506Z,19.57
2019-05-12T06:29:39.374Z,17.45
2019-05-12T06:32:14.155Z,17.50
2019-05-12T06:34:50.788Z,19.27
2019-05-12T06:37:26.077Z,19.92
2019-05-12T06:40:00.549Z,19.82
2019-05-12T06:42:34.574Z,20.82
2019-05-12T06:45:08.163Z,21.93
2019-05-12T06:47:45.421Z,23.25
2019-05-12T06:50:17.757Z,23.18
2019-05-12T06:52:52.756Z,19.52
2019-05-12T06:55:28.529Z,21.25
2019-05-12T06:57:58.453Z,19.80
2019-05-12T07:00:32.645Z,18.25
2019-05-12T07:03:04.507Z,18.48
2019-05-12T07:05:38.571Z,18.05
2019-05-12T07:08:10.995Z,18.75
2019-05-12T07:10:46.057Z,19.42
2019-05-12T07:13:23.256Z,19.57
2019-05-12T07:15:50.961Z,17.80
2019-05-12T07:18:32.207Z,18.50
2019-05-12T07:21:20.236Z,17.57
2019-05-12T07:23:53.502Z,17.27
2019-05-12T07:26:27.146Z,22.17
2019-05-12T07:28:59.297Z,18.20
2019-05-12T07:31:34.423Z,18.15
2019-05-12T07:34:08.005Z,19.90
2019-05-12T07:39:45.346Z,14.98
2019-05-12T07:42:13.391Z,15.80
2019-05-12T07:44:48.403Z,19.10
2019-05-12T07:49:53.753Z,20.08
2019-05-12T07:52:25.993Z,17.73
2019-05-12T07:54:58.191Z,17.73
2019-05-12T07:57:30.365Z,19.80
2019-05-12T08:00:03.637Z,17.55
2019-05-12T08:02:35.681Z,19.30
2019-05-12T08:05:16.797Z,24.30
2019-05-12T08:07:50.071Z,21.37
2019-05-12T08:10:20.361Z,17.20
2019-05-12T08:12:58.902Z,18.20
2019-05-12T08:15:25.887Z,17.30
2019-05-12T08:17:59.640Z,17.52
2019-05-12T08:20:34.064Z,17.10
2019-05-12T08:23:10.141Z,19.77
2019-05-12T08:25:39.516Z,18.32
2019-05-12T08:28:15.337Z,19.40
2019-05-12T08:30:47.428Z,16.95
2019-05-12T08:33:17.524Z,21.20
2019-05-12T08:35:49.453Z,18.17
2019-05-12T08:38:21.714Z,17.15
2019-05-12T08:40:54.243Z,20.00
2019-05-12T08:43:28.146Z,17.75
2019-05-12T08:46:05.980Z,20.72
2019-05-12T08:48:34.365Z,18.67
2019-05-12T08:51:13.998Z,19.92
2019-05-12T08:53:39.865Z,21.17
2019-05-12T08:56:19.455Z,17.27
2019-05-12T08:58:51.277Z,17.05
2019-05-12T09:01:27.981Z,20.95
2019-05-12T09:04:00.343Z,21.68
2019-05-12T09:06:29.634Z,32.03
2019-05-12T09:09:03.369Z,19.92
2019-05-12T09:11:35.068Z,20.25
2019-05-12T09:14:07.269Z,19.92
2019-05-12T09:16:39.536Z,18.70
2019-05-12T09:19:16.649Z,22.30
2019-05-12T09:21:44.442Z,19.90
2019-05-12T09:24:21.847Z,18.17
2019-05-12T09:26:50.485Z,18.12
2019-05-12T09:29:22.518Z,19.52
2019-05-12T09:31:53.557Z,18.27
2019-05-12T09:34:25.863Z,20.60
2019-05-12T09:36:59.626Z,19.80
2019-05-12T09:39:34.183Z,17.60
2019-05-12T09:42:04.633Z,19.57
2019-05-12T09:44:35.863Z,18.12
2019-05-12T09:47:21.971Z,22.05
2019-05-12T09:49:44.559Z,18.77
2019-05-12T09:52:22.260Z,19.90
2019-05-12T09:54:49.397Z,19.25
2019-05-12T09:57:23.795Z,20.62
2019-05-12T09:59:59.461Z,20.10
2019-05-12T10:02:31.437Z,19.82
2019-05-12T10:05:05.501Z,22.25
2019-05-12T10:07:36.638Z,20.75
2019-05-12T10:10:09.820Z,20.85
2019-05-12T10:12:46.417Z,22.27
2019-05-12T10:15:18.704Z,22.32
2019-05-12T10:17:50.837Z,20.65
2019-05-12T10:20:29.126Z,19.30
2019-05-12T10:23:00.409Z,20.17
2019-05-12T10:25:33.675Z,19.55
2019-05-12T10:28:11.397Z,20.40
2019-05-12T10:30:47.164Z,21.97
2019-05-12T10:33:15.705Z,20.88
2019-05-12T10:35:46.745Z,21.37
2019-05-12T10:38:21.036Z,25.80
2019-05-12T10:40:55.187Z,22.15
2019-05-12T10:43:29.298Z,23.60
2019-05-12T10:46:01.303Z,21.00
2019-05-12T10:48:33.918Z,19.60
2019-05-12T10:51:06.211Z,19.20
2019-05-12T10:53:37.941Z,25.00
2019-05-12T10:56:09.948Z,22.37
2019-05-12T10:58:41.005Z,16.48
2019-05-12T11:01:13.451Z,19.57
2019-05-12T11:03:50.928Z,20.82
2019-05-12T11:06:20.636Z,22.13
2019-05-12T11:08:54.833Z,23.62
2019-05-12T11:11:27.053Z,24.17
2019-05-12T11:13:59.425Z,28.83
2019-05-12T11:16:31.998Z,22.30
2019-05-12T11:19:06.399Z,25.55
2019-05-12T11:21:37.070Z,23.55
2019-05-12T11:24:11.040Z,24.57
2019-05-12T11:26:43.247Z,21.30
2019-05-12T11:29:15.748Z,24.52
2019-05-12T11:31:47.579Z,22.55
2019-05-12T11:34:19.589Z,23.90
2019-05-12T11:36:54.382Z,20.40
2019-05-12T11:39:30.695Z,23.12
2019-05-12T11:42:03.742Z,23.07
2019-05-12T11:44:35.362Z,23.40
2019-05-12T11:47:06.640Z,23.40
2019-05-12T11:49:39.065Z,23.47
2019-05-12T11:52:16.777Z,26.02
2019-05-12T11:54:50.960Z,24.55
2019-05-12T11:59:59.200Z,21.42
2019-05-12T12:02:30.280Z,21.27
2019-05-12T12:04:59.795Z,20.97
2019-05-12T12:07:33.252Z,23.62
2019-05-12T12:10:04.362Z,22.58
2019-05-12T12:12:39.666Z,24.85
2019-05-12T12:15:10.200Z,20.32
2019-05-12T12:17:44.011Z,18.27
2019-05-12T12:20:22.023Z,21.50
2019-05-12T12:22:50.682Z,18.87
2019-05-12T12:25:24.144Z,25.87
2019-05-12T12:27:56.661Z,17.60
2019-05-12T12:30:31.124Z,17.57
2019-05-12T12:33:04.777Z,18.95
2019-05-12T12:35:37.204Z,22.42
2019-05-12T12:38:11.212Z,21.40
2019-05-12T12:40:44.155Z,16.40
2019-05-12T12:43:18.601Z,20.05
2019-05-12T12:45:50.843Z,23.97
2019-05-12T12:48:25.559Z,19.98
2019-05-12T12:50:56.605Z,18.32
2019-05-12T12:53:30.645Z,19.62
2019-05-12T12:56:04.623Z,19.82
2019-05-12T12:58:38.243Z,19.40
2019-05-12T13:01:15.740Z,26.23
2019-05-12T13:03:45.553Z,20.10
2019-05-12T13:06:19.063Z,24.37
2019-05-12T13:08:53.946Z,19.48
2019-05-12T13:11:33.095Z,24.12
2019-05-12T13:13:58.024Z,23.15
2019-05-12T13:16:34.331Z,22.98
2019-05-12T13:19:12.127Z,27.10
2019-05-12T13:21:43.780Z,28.98
2019-05-12T13:24:15.273Z,28.50
2019-05-12T13:26:47.387Z,28.23
2019-05-12T13:29:19.336Z,29.00
2019-05-12T13:31:53.744Z,30.68
2019-05-12T13:34:28.924Z,26.97
2019-05-12T13:37:00.257Z,23.55
2019-05-12T13:39:34.132Z,27.05
2019-05-12T13:42:05.985Z,25.02
2019-05-12T13:44:41.005Z,24.30
2019-05-12T13:49:48.440Z,28.98
2019-05-12T13:52:26.353Z,24.45
2019-05-12T13:54:54.991Z,25.75
2019-05-12T13:57:28.914Z,26.20
2019-05-12T14:00:06.836Z,21.62
2019-05-12T14:02:36.394Z,20.85
2019-05-12T14:05:11.484Z,21.42
2019-05-12T14:10:33.218Z,22.77
2019-05-12T14:13:04.567Z,24.25
2019-05-12T14:15:36.801Z,30.80
2019-05-12T14:18:10.498Z,24.63
2019-05-12T14:20:44.911Z,26.07
2019-05-12T14:23:14.559Z,28.62
2019-05-12T14:25:48.757Z,27.67
2019-05-12T14:28:24.121Z,26.33
2019-05-12T14:30:58.138Z,26.52
2019-05-12T14:33:37.522Z,26.40
2019-05-12T14:36:06.253Z,26.12
2019-05-12T14:38:37.464Z,23.90
2019-05-12T14:41:11.685Z,29.92
2019-05-12T14:43:47.685Z,23.38
2019-05-12T14:46:17.961Z,29.00
2019-05-12T14:48:50.561Z,23.55
2019-05-12T14:51:24.536Z,25.20
2019-05-12T14:53:56.958Z,24.85
2019-05-12T14:56:29.071Z,27.48
2019-05-12T14:59:03.528Z,24.05
2019-05-12T15:01:51.634Z,22.45
2019-05-12T15:04:13.280Z,29.07
2019-05-12T15:06:44.583Z,23.02
2019-05-12T15:09:20.442Z,22.17
2019-05-12T15:11:52.239Z,23.52
2019-05-12T15:14:32.459Z,23.30
2019-05-12T15:17:22.424Z,21.05
2019-05-12T15:19:54.154Z,21.82
2019-05-12T15:22:42.949Z,20.97
2019-05-12T15:25:20.391Z,19.45
2019-05-12T15:30:53.963Z,22.45
2019-05-12T15:33:44.100Z,19.85
2019-05-12T15:36:19.786Z,21.48
2019-05-12T15:38:58.867Z,22.17
2019-05-12T15:41:33.158Z,23.45
2019-05-12T15:44:14.600Z,21.05
2019-05-12T15:46:56.987Z,21.55
2019-05-12T15:49:36.770Z,20.08
2019-05-12T15:52:18.853Z,19.92
2019-05-12T15:54:59.103Z,19.32
2019-05-12T15:57:37.192Z,18.85
2019-05-12T16:00:17.260Z,18.70
